sensor_id;sensor_type;location;lat;lon;timestamp;P1;durP1;ratioP1;P2;durP2;ratioP2
37535;SDS011;23379;51.554;6.736;2024-02-28T00:01:29;43.03;;;19.42;;
37535;SDS011;23379;51.554;6.736;2024-02-28T00:03:54;49.20;;;19.88;;
37535;SDS011;23379;51.554;6.736;2024-02-28T00:06:19;54.55;;;21.48;;
37535;SDS011;23379;51.554;6.736;2024-02-28T00:08:45;45.75;;;20.80;;
37535;SDS011;23379;51.554;6.736;2024-02-28T00:11:11;44.50;;;20.77;;
37535;SDS011;23379;51.554;6.736;2024-02-28T00:13:36;44.40;;;20.48;;
37535;SDS011;23379;51.554;6.736;2024-02-28T00:16:02;45.28;;;20.92;;
37535;SDS011;23379;51.554;6.736;2024-02-28T00:18:28;44.03;;;19.52;;
37535;SDS011;23379;51.554;6.736;2024-02-28T00:20:53;48.60;;;20.50;;
37535;SDS011;23379;51.554;6.736;2024-02-28T00:23:19;47.85;;;21.25;;
37535;SDS011;23379;51.554;6.736;2024-02-28T00:25:44;44.55;;;20.98;;
37535;SDS011;23379;51.554;6.736;2024-02-28T00:28:10;52.08;;;20.38;;
37535;SDS011;23379;51.554;6.736;2024-02-28T00:30:35;49.55;;;21.20;;
37535;SDS011;23379;51.554;6.736;2024-02-28T00:33:00;48.00;;;21.98;;
37535;SDS011;23379;51.554;6.736;2024-02-28T00:35:25;66.72;;;22.88;;
37535;SDS011;23379;51.554;6.736;2024-02-28T00:37:51;50.40;;;21.35;;
37535;SDS011;23379;51.554;6.736;2024-02-28T00:40:16;49.17;;;19.90;;
37535;SDS011;23379;51.554;6.736;2024-02-28T00:42:42;73.55;;;25.15;;
37535;SDS011;23379;51.554;6.736;2024-02-28T00:45:08;69.25;;;22.17;;
37535;SDS011;23379;51.554;6.736;2024-02-28T00:47:34;60.85;;;23.48;;
37535;SDS011;23379;51.554;6.736;2024-02-28T00:50:00;95.65;;;23.45;;
37535;SDS011;23379;51.554;6.736;2024-02-28T00:52:28;117.60;;;21.65;;
37535;SDS011;23379;51.554;6.736;2024-02-28T00:54:53;92.78;;;23.60;;
37535;SDS011;23379;51.554;6.736;2024-02-28T00:57:18;85.32;;;24.23;;
37535;SDS011;23379;51.554;6.736;2024-02-28T00:59:44;94.60;;;22.40;;
37535;SDS011;23379;51.554;6.736;2024-02-28T01:02:09;84.07;;;19.95;;
37535;SDS011;23379;51.554;6.736;2024-02-28T01:04:35;112.97;;;23.85;;
37535;SDS011;23379;51.554;6.736;2024-02-28T01:07:00;107.13;;;22.67;;
37535;SDS011;23379;51.554;6.736;2024-02-28T01:09:25;107.57;;;22.83;;
37535;SDS011;23379;51.554;6.736;2024-02-28T01:11:51;125.95;;;24.95;;
37535;SDS011;23379;51.554;6.736;2024-02-28T01:14:16;112.03;;;20.85;;
37535;SDS011;23379;51.554;6.736;2024-02-28T01:16:41;216.00;;;25.55;;
37535;SDS011;23379;51.554;6.736;2024-02-28T01:19:07;78.32;;;19.65;;
37535;SDS011;23379;51.554;6.736;2024-02-28T01:21:32;53.72;;;19.20;;
37535;SDS011;23379;51.554;6.736;2024-02-28T01:23:58;51.22;;;20.30;;
37535;SDS011;23379;51.554;6.736;2024-02-28T01:26:23;77.90;;;20.50;;
37535;SDS011;23379;51.554;6.736;2024-02-28T01:28:49;93.15;;;21.48;;
37535;SDS011;23379;51.554;6.736;2024-02-28T01:31:15;93.07;;;20.33;;
37535;SDS011;23379;51.554;6.736;2024-02-28T01:33:40;70.80;;;21.00;;
37535;SDS011;23379;51.554;6.736;2024-02-28T01:36:08;82.03;;;20.35;;
37535;SDS011;23379;51.554;6.736;2024-02-28T01:38:34;125.95;;;21.05;;
37535;SDS011;23379;51.554;6.736;2024-02-28T01:40:59;56.83;;;18.92;;
37535;SDS011;23379;51.554;6.736;2024-02-28T01:43:25;128.38;;;19.30;;
37535;SDS011;23379;51.554;6.736;2024-02-28T01:45:50;71.25;;;18.60;;
37535;SDS011;23379;51.554;6.736;2024-02-28T01:48:16;94.28;;;21.30;;
37535;SDS011;23379;51.554;6.736;2024-02-28T01:50:41;98.50;;;20.63;;
37535;SDS011;23379;51.554;6.736;2024-02-28T01:53:07;57.75;;;18.80;;
37535;SDS011;23379;51.554;6.736;2024-02-28T01:55:34;61.45;;;19.30;;
37535;SDS011;23379;51.554;6.736;2024-02-28T01:58:00;49.40;;;17.92;;
37535;SDS011;23379;51.554;6.736;2024-02-28T02:00:26;98.57;;;19.90;;
37535;SDS011;23379;51.554;6.736;2024-02-28T02:02:53;96.45;;;20.13;;
37535;SDS011;23379;51.554;6.736;2024-02-28T02:05:18;85.53;;;21.45;;
37535;SDS011;23379;51.554;6.736;2024-02-28T02:07:46;83.88;;;20.50;;
37535;SDS011;23379;51.554;6.736;2024-02-28T02:10:13;83.97;;;21.10;;
37535;SDS011;23379;51.554;6.736;2024-02-28T02:12:39;48.92;;;18.05;;
37535;SDS011;23379;51.554;6.736;2024-02-28T02:15:04;59.38;;;19.05;;
37535;SDS011;23379;51.554;6.736;2024-02-28T02:17:30;71.68;;;18.92;;
37535;SDS011;23379;51.554;6.736;2024-02-28T02:19:55;84.78;;;18.42;;
37535;SDS011;23379;51.554;6.736;2024-02-28T02:22:20;117.20;;;19.50;;
37535;SDS011;23379;51.554;6.736;2024-02-28T02:24:48;72.55;;;20.30;;
37535;SDS011;23379;51.554;6.736;2024-02-28T02:27:13;128.57;;;20.27;;
37535;SDS011;23379;51.554;6.736;2024-02-28T02:29:38;91.82;;;19.20;;
37535;SDS011;23379;51.554;6.736;2024-02-28T02:32:04;59.78;;;18.70;;
37535;SDS011;23379;51.554;6.736;2024-02-28T02:34:29;65.75;;;18.90;;
37535;SDS011;23379;51.554;6.736;2024-02-28T02:36:55;77.80;;;18.17;;
37535;SDS011;23379;51.554;6.736;2024-02-28T02:39:20;89.75;;;19.80;;
37535;SDS011;23379;51.554;6.736;2024-02-28T02:41:45;47.65;;;17.80;;
37535;SDS011;23379;51.554;6.736;2024-02-28T02:44:12;83.63;;;20.90;;
37535;SDS011;23379;51.554;6.736;2024-02-28T02:46:37;76.78;;;19.80;;
37535;SDS011;23379;51.554;6.736;2024-02-28T02:49:04;65.20;;;20.38;;
37535;SDS011;23379;51.554;6.736;2024-02-28T02:51:29;109.25;;;18.65;;
37535;SDS011;23379;51.554;6.736;2024-02-28T02:53:54;80.65;;;20.15;;
37535;SDS011;23379;51.554;6.736;2024-02-28T02:56:20;62.90;;;18.92;;
37535;SDS011;23379;51.554;6.736;2024-02-28T02:58:45;63.33;;;20.13;;
37535;SDS011;23379;51.554;6.736;2024-02-28T03:01:11;72.28;;;20.10;;
37535;SDS011;23379;51.554;6.736;2024-02-28T03:03:36;77.10;;;21.75;;
37535;SDS011;23379;51.554;6.736;2024-02-28T03:06:02;113.57;;;20.55;;
37535;SDS011;23379;51.554;6.736;2024-02-28T03:08:29;56.72;;;20.70;;
37535;SDS011;23379;51.554;6.736;2024-02-28T03:10:55;49.38;;;20.92;;
37535;SDS011;23379;51.554;6.736;2024-02-28T03:13:20;44.20;;;20.00;;
37535;SDS011;23379;51.554;6.736;2024-02-28T03:15:46;104.13;;;21.48;;
37535;SDS011;23379;51.554;6.736;2024-02-28T03:18:11;57.83;;;22.00;;
37535;SDS011;23379;51.554;6.736;2024-02-28T03:20:36;68.45;;;20.10;;
37535;SDS011;23379;51.554;6.736;2024-02-28T03:23:03;97.88;;;22.60;;
37535;SDS011;23379;51.554;6.736;2024-02-28T03:25:31;87.25;;;22.83;;
37535;SDS011;23379;51.554;6.736;2024-02-28T03:27:59;95.22;;;21.40;;
37535;SDS011;23379;51.554;6.736;2024-02-28T03:30:26;104.50;;;22.30;;
37535;SDS011;23379;51.554;6.736;2024-02-28T03:32:51;52.55;;;20.88;;
37535;SDS011;23379;51.554;6.736;2024-02-28T03:35:16;68.93;;;20.80;;
37535;SDS011;23379;51.554;6.736;2024-02-28T03:37:42;74.22;;;20.27;;
37535;SDS011;23379;51.554;6.736;2024-02-28T03:40:07;76.35;;;20.30;;
37535;SDS011;23379;51.554;6.736;2024-02-28T03:42:33;82.88;;;23.83;;
37535;SDS011;23379;51.554;6.736;2024-02-28T03:44:58;79.95;;;22.60;;
37535;SDS011;23379;51.554;6.736;2024-02-28T03:47:23;67.72;;;22.90;;
37535;SDS011;23379;51.554;6.736;2024-02-28T03:49:49;87.85;;;23.88;;
37535;SDS011;23379;51.554;6.736;2024-02-28T03:52:15;75.00;;;22.38;;
37535;SDS011;23379;51.554;6.736;2024-02-28T03:54:43;77.55;;;25.17;;
37535;SDS011;23379;51.554;6.736;2024-02-28T03:57:09;139.57;;;26.20;;
37535;SDS011;23379;51.554;6.736;2024-02-28T03:59:34;65.00;;;26.38;;
37535;SDS011;23379;51.554;6.736;2024-02-28T04:02:00;65.60;;;26.23;;
37535;SDS011;23379;51.554;6.736;2024-02-28T04:04:25;71.75;;;25.55;;
37535;SDS011;23379;51.554;6.736;2024-02-28T04:06:51;113.95;;;27.23;;
37535;SDS011;23379;51.554;6.736;2024-02-28T04:09:17;74.50;;;25.00;;
37535;SDS011;23379;51.554;6.736;2024-02-28T04:11:42;85.45;;;25.63;;
37535;SDS011;23379;51.554;6.736;2024-02-28T04:14:08;87.57;;;26.65;;
37535;SDS011;23379;51.554;6.736;2024-02-28T04:16:33;96.82;;;29.98;;
37535;SDS011;23379;51.554;6.736;2024-02-28T04:18:58;104.82;;;30.40;;
37535;SDS011;23379;51.554;6.736;2024-02-28T04:21:24;103.45;;;33.03;;
37535;SDS011;23379;51.554;6.736;2024-02-28T04:23:49;79.05;;;32.58;;
37535;SDS011;23379;51.554;6.736;2024-02-28T04:26:14;74.30;;;29.92;;
37535;SDS011;23379;51.554;6.736;2024-02-28T04:28:41;87.45;;;31.15;;
37535;SDS011;23379;51.554;6.736;2024-02-28T04:31:07;105.28;;;30.77;;
37535;SDS011;23379;51.554;6.736;2024-02-28T04:33:32;157.75;;;32.17;;
37535;SDS011;23379;51.554;6.736;2024-02-28T04:35:57;137.30;;;31.75;;
37535;SDS011;23379;51.554;6.736;2024-02-28T04:38:23;99.72;;;29.27;;
37535;SDS011;23379;51.554;6.736;2024-02-28T04:40:48;96.70;;;30.38;;
37535;SDS011;23379;51.554;6.736;2024-02-28T04:43:14;82.00;;;29.08;;
37535;SDS011;23379;51.554;6.736;2024-02-28T04:45:40;131.93;;;31.67;;
37535;SDS011;23379;51.554;6.736;2024-02-28T04:48:05;108.10;;;29.05;;
37535;SDS011;23379;51.554;6.736;2024-02-28T04:50:31;104.75;;;28.77;;
37535;SDS011;23379;51.554;6.736;2024-02-28T04:52:56;108.25;;;31.33;;
37535;SDS011;23379;51.554;6.736;2024-02-28T04:55:22;98.43;;;31.13;;
37535;SDS011;23379;51.554;6.736;2024-02-28T04:57:47;110.22;;;29.15;;
37535;SDS011;23379;51.554;6.736;2024-02-28T05:00:12;91.57;;;28.27;;
37535;SDS011;23379;51.554;6.736;2024-02-28T05:02:38;95.88;;;30.85;;
37535;SDS011;23379;51.554;6.736;2024-02-28T05:05:03;116.90;;;32.40;;
37535;SDS011;23379;51.554;6.736;2024-02-28T05:07:29;109.55;;;30.88;;
37535;SDS011;23379;51.554;6.736;2024-02-28T05:09:54;105.28;;;29.00;;
37535;SDS011;23379;51.554;6.736;2024-02-28T05:12:19;75.78;;;29.85;;
37535;SDS011;23379;51.554;6.736;2024-02-28T05:14:45;92.57;;;30.48;;
37535;SDS011;23379;51.554;6.736;2024-02-28T05:17:10;113.53;;;30.75;;
37535;SDS011;23379;51.554;6.736;2024-02-28T05:19:35;109.97;;;28.17;;
37535;SDS011;23379;51.554;6.736;2024-02-28T05:22:01;81.65;;;29.13;;
37535;SDS011;23379;51.554;6.736;2024-02-28T05:24:26;77.35;;;28.27;;
37535;SDS011;23379;51.554;6.736;2024-02-28T05:26:52;91.95;;;28.98;;
37535;SDS011;23379;51.554;6.736;2024-02-28T05:29:17;96.97;;;30.42;;
37535;SDS011;23379;51.554;6.736;2024-02-28T05:31:42;79.50;;;28.63;;
37535;SDS011;23379;51.554;6.736;2024-02-28T05:34:08;138.48;;;31.75;;
37535;SDS011;23379;51.554;6.736;2024-02-28T05:36:33;75.75;;;29.33;;
37535;SDS011;23379;51.554;6.736;2024-02-28T05:38:59;68.68;;;29.58;;
37535;SDS011;23379;51.554;6.736;2024-02-28T05:41:30;80.97;;;29.35;;
37535;SDS011;23379;51.554;6.736;2024-02-28T05:43:56;79.88;;;30.02;;
37535;SDS011;23379;51.554;6.736;2024-02-28T05:46:21;74.72;;;27.77;;
37535;SDS011;23379;51.554;6.736;2024-02-28T05:48:47;69.05;;;29.65;;
37535;SDS011;23379;51.554;6.736;2024-02-28T05:51:12;80.15;;;29.45;;
37535;SDS011;23379;51.554;6.736;2024-02-28T05:53:38;73.65;;;29.17;;
37535;SDS011;23379;51.554;6.736;2024-02-28T05:56:07;61.97;;;29.02;;
37535;SDS011;23379;51.554;6.736;2024-02-28T05:58:40;73.88;;;29.33;;
37535;SDS011;23379;51.554;6.736;2024-02-28T06:01:08;68.57;;;29.50;;
37535;SDS011;23379;51.554;6.736;2024-02-28T06:03:34;79.35;;;29.65;;
37535;SDS011;23379;51.554;6.736;2024-02-28T06:05:59;78.15;;;31.35;;
37535;SDS011;23379;51.554;6.736;2024-02-28T06:08:25;96.93;;;31.20;;
37535;SDS011;23379;51.554;6.736;2024-02-28T06:10:50;68.45;;;28.88;;
37535;SDS011;23379;51.554;6.736;2024-02-28T06:13:17;113.68;;;32.60;;
37535;SDS011;23379;51.554;6.736;2024-02-28T06:15:43;84.63;;;32.25;;
37535;SDS011;23379;51.554;6.736;2024-02-28T06:18:08;75.10;;;31.08;;
37535;SDS011;23379;51.554;6.736;2024-02-28T06:20:34;73.15;;;31.73;;
37535;SDS011;23379;51.554;6.736;2024-02-28T06:22:59;106.15;;;31.83;;
37535;SDS011;23379;51.554;6.736;2024-02-28T06:25:24;74.07;;;30.73;;
37535;SDS011;23379;51.554;6.736;2024-02-28T06:27:52;96.60;;;30.85;;
37535;SDS011;23379;51.554;6.736;2024-02-28T06:30:18;83.72;;;31.88;;
37535;SDS011;23379;51.554;6.736;2024-02-28T06:32:43;79.93;;;32.85;;
37535;SDS011;23379;51.554;6.736;2024-02-28T06:35:09;70.88;;;30.35;;
37535;SDS011;23379;51.554;6.736;2024-02-28T06:37:34;109.13;;;33.65;;
37535;SDS011;23379;51.554;6.736;2024-02-28T06:40:00;88.53;;;32.13;;
37535;SDS011;23379;51.554;6.736;2024-02-28T06:42:29;105.38;;;32.85;;
37535;SDS011;23379;51.554;6.736;2024-02-28T06:44:54;101.72;;;32.78;;
37535;SDS011;23379;51.554;6.736;2024-02-28T06:47:20;86.15;;;32.75;;
37535;SDS011;23379;51.554;6.736;2024-02-28T06:49:45;90.07;;;33.63;;
37535;SDS011;23379;51.554;6.736;2024-02-28T06:52:10;92.35;;;34.03;;
37535;SDS011;23379;51.554;6.736;2024-02-28T06:54:36;104.80;;;34.03;;
37535;SDS011;23379;51.554;6.736;2024-02-28T06:57:02;101.63;;;34.58;;
37535;SDS011;23379;51.554;6.736;2024-02-28T06:59:27;109.38;;;35.42;;
37535;SDS011;23379;51.554;6.736;2024-02-28T07:01:53;101.93;;;34.97;;
37535;SDS011;23379;51.554;6.736;2024-02-28T07:04:18;94.32;;;34.38;;
37535;SDS011;23379;51.554;6.736;2024-02-28T07:06:43;90.32;;;36.13;;
37535;SDS011;23379;51.554;6.736;2024-02-28T07:09:09;82.68;;;35.60;;
37535;SDS011;23379;51.554;6.736;2024-02-28T07:11:34;102.35;;;37.58;;
37535;SDS011;23379;51.554;6.736;2024-02-28T07:14:01;117.88;;;36.60;;
37535;SDS011;23379;51.554;6.736;2024-02-28T07:16:30;100.65;;;36.67;;
37535;SDS011;23379;51.554;6.736;2024-02-28T07:18:58;103.03;;;39.58;;
37535;SDS011;23379;51.554;6.736;2024-02-28T07:21:24;103.95;;;37.92;;
37535;SDS011;23379;51.554;6.736;2024-02-28T07:23:50;98.97;;;38.97;;
37535;SDS011;23379;51.554;6.736;2024-02-28T07:26:16;113.97;;;39.78;;
37535;SDS011;23379;51.554;6.736;2024-02-28T07:28:41;107.05;;;39.78;;
37535;SDS011;23379;51.554;6.736;2024-02-28T07:31:07;111.70;;;39.47;;
37535;SDS011;23379;51.554;6.736;2024-02-28T07:33:39;120.88;;;40.95;;
37535;SDS011;23379;51.554;6.736;2024-02-28T07:36:05;122.15;;;40.47;;
37535;SDS011;23379;51.554;6.736;2024-02-28T07:38:30;126.97;;;40.67;;
37535;SDS011;23379;51.554;6.736;2024-02-28T07:40:55;123.43;;;41.33;;
37535;SDS011;23379;51.554;6.736;2024-02-28T07:43:21;122.03;;;41.83;;
37535;SDS011;23379;51.554;6.736;2024-02-28T07:45:46;130.02;;;42.33;;
37535;SDS011;23379;51.554;6.736;2024-02-28T07:48:11;141.90;;;43.00;;
37535;SDS011;23379;51.554;6.736;2024-02-28T07:50:37;134.35;;;41.00;;
37535;SDS011;23379;51.554;6.736;2024-02-28T07:53:03;119.38;;;40.47;;
37535;SDS011;23379;51.554;6.736;2024-02-28T07:55:29;111.72;;;40.28;;
37535;SDS011;23379;51.554;6.736;2024-02-28T07:57:54;122.95;;;39.08;;
37535;SDS011;23379;51.554;6.736;2024-02-28T08:00:19;121.93;;;39.28;;
37535;SDS011;23379;51.554;6.736;2024-02-28T08:02:45;121.45;;;39.05;;
37535;SDS011;23379;51.554;6.736;2024-02-28T08:05:11;125.35;;;40.30;;
37535;SDS011;23379;51.554;6.736;2024-02-28T08:07:36;110.30;;;39.95;;
37535;SDS011;23379;51.554;6.736;2024-02-28T08:10:02;118.93;;;40.40;;
37535;SDS011;23379;51.554;6.736;2024-02-28T08:12:30;131.82;;;41.65;;
37535;SDS011;23379;51.554;6.736;2024-02-28T08:14:55;115.72;;;39.10;;
37535;SDS011;23379;51.554;6.736;2024-02-28T08:17:21;122.70;;;40.17;;
37535;SDS011;23379;51.554;6.736;2024-02-28T08:19:46;103.68;;;36.58;;
37535;SDS011;23379;51.554;6.736;2024-02-28T08:22:11;116.90;;;38.55;;
37535;SDS011;23379;51.554;6.736;2024-02-28T08:24:37;118.18;;;38.30;;
37535;SDS011;23379;51.554;6.736;2024-02-28T08:27:02;108.63;;;37.45;;
37535;SDS011;23379;51.554;6.736;2024-02-28T08:29:28;110.63;;;38.92;;
37535;SDS011;23379;51.554;6.736;2024-02-28T08:31:53;116.63;;;38.92;;
37535;SDS011;23379;51.554;6.736;2024-02-28T08:34:18;120.82;;;38.22;;
37535;SDS011;23379;51.554;6.736;2024-02-28T08:36:44;128.02;;;41.85;;
37535;SDS011;23379;51.554;6.736;2024-02-28T08:39:09;122.15;;;39.97;;
37535;SDS011;23379;51.554;6.736;2024-02-28T08:41:34;135.70;;;44.33;;
37535;SDS011;23379;51.554;6.736;2024-02-28T08:44:00;126.47;;;40.88;;
37535;SDS011;23379;51.554;6.736;2024-02-28T08:46:25;133.50;;;41.25;;
37535;SDS011;23379;51.554;6.736;2024-02-28T08:48:50;121.55;;;39.70;;
37535;SDS011;23379;51.554;6.736;2024-02-28T08:51:16;126.68;;;42.88;;
37535;SDS011;23379;51.554;6.736;2024-02-28T08:53:41;128.73;;;42.55;;
37535;SDS011;23379;51.554;6.736;2024-02-28T08:56:06;117.70;;;38.97;;
37535;SDS011;23379;51.554;6.736;2024-02-28T08:58:32;102.05;;;38.78;;
37535;SDS011;23379;51.554;6.736;2024-02-28T09:00:57;115.72;;;39.50;;
37535;SDS011;23379;51.554;6.736;2024-02-28T09:03:23;118.25;;;39.17;;
37535;SDS011;23379;51.554;6.736;2024-02-28T09:05:48;109.85;;;37.88;;
37535;SDS011;23379;51.554;6.736;2024-02-28T09:08:14;105.82;;;37.67;;
37535;SDS011;23379;51.554;6.736;2024-02-28T09:10:39;107.57;;;38.00;;
37535;SDS011;23379;51.554;6.736;2024-02-28T09:13:04;98.50;;;35.35;;
37535;SDS011;23379;51.554;6.736;2024-02-28T09:15:31;104.25;;;36.70;;
37535;SDS011;23379;51.554;6.736;2024-02-28T09:17:57;105.55;;;39.30;;
37535;SDS011;23379;51.554;6.736;2024-02-28T09:20:22;107.45;;;37.70;;
37535;SDS011;23379;51.554;6.736;2024-02-28T09:22:47;101.80;;;35.08;;
37535;SDS011;23379;51.554;6.736;2024-02-28T09:25:13;98.32;;;38.33;;
37535;SDS011;23379;51.554;6.736;2024-02-28T09:27:40;102.90;;;37.88;;
37535;SDS011;23379;51.554;6.736;2024-02-28T09:30:06;96.20;;;35.78;;
37535;SDS011;23379;51.554;6.736;2024-02-28T09:32:31;98.50;;;38.90;;
37535;SDS011;23379;51.554;6.736;2024-02-28T09:34:57;93.22;;;36.75;;
37535;SDS011;23379;51.554;6.736;2024-02-28T09:37:22;106.28;;;39.92;;
37535;SDS011;23379;51.554;6.736;2024-02-28T09:39:49;107.07;;;39.05;;
37535;SDS011;23379;51.554;6.736;2024-02-28T09:42:16;109.28;;;41.05;;
37535;SDS011;23379;51.554;6.736;2024-02-28T09:44:42;109.93;;;39.47;;
37535;SDS011;23379;51.554;6.736;2024-02-28T09:47:08;105.78;;;36.58;;
37535;SDS011;23379;51.554;6.736;2024-02-28T09:49:33;99.00;;;37.50;;
37535;SDS011;23379;51.554;6.736;2024-02-28T09:52:02;99.80;;;34.58;;
37535;SDS011;23379;51.554;6.736;2024-02-28T09:54:28;102.82;;;37.72;;
37535;SDS011;23379;51.554;6.736;2024-02-28T09:56:54;98.35;;;36.65;;
37535;SDS011;23379;51.554;6.736;2024-02-28T09:59:20;92.97;;;36.67;;
37535;SDS011;23379;51.554;6.736;2024-02-28T10:01:49;87.57;;;33.53;;
37535;SDS011;23379;51.554;6.736;2024-02-28T10:04:20;86.90;;;35.20;;
37535;SDS011;23379;51.554;6.736;2024-02-28T10:06:46;77.03;;;30.95;;
37535;SDS011;23379;51.554;6.736;2024-02-28T10:09:14;85.60;;;32.45;;
37535;SDS011;23379;51.554;6.736;2024-02-28T10:11:41;71.93;;;29.52;;
37535;SDS011;23379;51.554;6.736;2024-02-28T10:14:08;78.10;;;31.23;;
37535;SDS011;23379;51.554;6.736;2024-02-28T10:16:34;73.38;;;32.25;;
37535;SDS011;23379;51.554;6.736;2024-02-28T10:18:59;72.72;;;30.77;;
37535;SDS011;23379;51.554;6.736;2024-02-28T10:21:25;83.05;;;31.75;;
37535;SDS011;23379;51.554;6.736;2024-02-28T10:23:51;70.80;;;29.83;;
37535;SDS011;23379;51.554;6.736;2024-02-28T10:26:16;78.35;;;30.08;;
37535;SDS011;23379;51.554;6.736;2024-02-28T10:28:42;74.85;;;31.10;;
37535;SDS011;23379;51.554;6.736;2024-02-28T10:31:09;65.32;;;28.17;;
37535;SDS011;23379;51.554;6.736;2024-02-28T10:33:35;59.45;;;27.23;;
37535;SDS011;23379;51.554;6.736;2024-02-28T10:36:02;59.90;;;26.77;;
37535;SDS011;23379;51.554;6.736;2024-02-28T10:38:29;65.93;;;29.00;;
37535;SDS011;23379;51.554;6.736;2024-02-28T10:40:56;62.28;;;28.63;;
37535;SDS011;23379;51.554;6.736;2024-02-28T10:43:22;64.85;;;28.20;;
37535;SDS011;23379;51.554;6.736;2024-02-28T10:45:50;64.10;;;27.85;;
37535;SDS011;23379;51.554;6.736;2024-02-28T10:48:16;65.40;;;28.60;;
37535;SDS011;23379;51.554;6.736;2024-02-28T10:50:43;60.53;;;28.60;;
37535;SDS011;23379;51.554;6.736;2024-02-28T10:53:12;56.80;;;26.48;;
37535;SDS011;23379;51.554;6.736;2024-02-28T10:55:39;63.70;;;26.88;;
37535;SDS011;23379;51.554;6.736;2024-02-28T10:58:09;69.13;;;29.92;;
37535;SDS011;23379;51.554;6.736;2024-02-28T11:00:36;65.32;;;26.05;;
37535;SDS011;23379;51.554;6.736;2024-02-28T11:03:03;55.78;;;25.85;;
37535;SDS011;23379;51.554;6.736;2024-02-28T11:05:39;59.95;;;26.02;;
37535;SDS011;23379;51.554;6.736;2024-02-28T11:10:35;64.93;;;27.77;;
37535;SDS011;23379;51.554;6.736;2024-02-28T11:13:00;67.40;;;29.25;;
37535;SDS011;23379;51.554;6.736;2024-02-28T11:15:25;65.80;;;29.92;;
37535;SDS011;23379;51.554;6.736;2024-02-28T11:17:54;66.03;;;29.45;;
37535;SDS011;23379;51.554;6.736;2024-02-28T11:20:20;67.10;;;29.17;;
37535;SDS011;23379;51.554;6.736;2024-02-28T11:22:47;65.22;;;27.60;;
37535;SDS011;23379;51.554;6.736;2024-02-28T11:25:12;66.85;;;28.33;;
37535;SDS011;23379;51.554;6.736;2024-02-28T11:27:48;68.45;;;28.77;;
37535;SDS011;23379;51.554;6.736;2024-02-28T11:30:14;59.15;;;26.45;;
37535;SDS011;23379;51.554;6.736;2024-02-28T11:32:40;56.30;;;26.13;;
37535;SDS011;23379;51.554;6.736;2024-02-28T11:35:06;64.82;;;27.58;;
37535;SDS011;23379;51.554;6.736;2024-02-28T11:37:31;62.30;;;27.58;;
37535;SDS011;23379;51.554;6.736;2024-02-28T11:39:57;60.03;;;26.17;;
37535;SDS011;23379;51.554;6.736;2024-02-28T11:42:23;66.78;;;29.10;;
37535;SDS011;23379;51.554;6.736;2024-02-28T11:44:55;77.80;;;31.88;;
37535;SDS011;23379;51.554;6.736;2024-02-28T11:47:22;75.55;;;29.92;;
37535;SDS011;23379;51.554;6.736;2024-02-28T11:49:48;70.50;;;29.00;;
37535;SDS011;23379;51.554;6.736;2024-02-28T11:52:14;66.10;;;28.35;;
37535;SDS011;23379;51.554;6.736;2024-02-28T11:54:39;61.78;;;27.65;;
37535;SDS011;23379;51.554;6.736;2024-02-28T11:57:05;64.65;;;27.08;;
37535;SDS011;23379;51.554;6.736;2024-02-28T11:59:32;65.50;;;26.65;;
37535;SDS011;23379;51.554;6.736;2024-02-28T12:01:58;62.58;;;28.17;;
37535;SDS011;23379;51.554;6.736;2024-02-28T12:04:23;62.65;;;26.58;;
37535;SDS011;23379;51.554;6.736;2024-02-28T12:06:50;66.18;;;27.50;;
37535;SDS011;23379;51.554;6.736;2024-02-28T12:09:15;63.55;;;27.90;;
37535;SDS011;23379;51.554;6.736;2024-02-28T12:11:43;62.50;;;27.98;;
37535;SDS011;23379;51.554;6.736;2024-02-28T12:14:09;53.28;;;25.10;;
37535;SDS011;23379;51.554;6.736;2024-02-28T12:16:38;56.95;;;26.08;;
37535;SDS011;23379;51.554;6.736;2024-02-28T12:19:09;61.22;;;24.75;;
37535;SDS011;23379;51.554;6.736;2024-02-28T12:21:39;55.63;;;25.77;;
37535;SDS011;23379;51.554;6.736;2024-02-28T12:24:08;55.35;;;25.52;;
37535;SDS011;23379;51.554;6.736;2024-02-28T12:26:35;55.80;;;24.95;;
37535;SDS011;23379;51.554;6.736;2024-02-28T12:29:01;56.00;;;26.02;;
37535;SDS011;23379;51.554;6.736;2024-02-28T12:31:27;43.80;;;22.02;;
37535;SDS011;23379;51.554;6.736;2024-02-28T12:33:52;46.78;;;21.85;;
37535;SDS011;23379;51.554;6.736;2024-02-28T12:36:19;48.92;;;22.75;;
37535;SDS011;23379;51.554;6.736;2024-02-28T12:38:45;44.75;;;21.70;;
37535;SDS011;23379;51.554;6.736;2024-02-28T12:41:10;44.20;;;21.33;;
37535;SDS011;23379;51.554;6.736;2024-02-28T12:43:36;44.92;;;20.33;;
37535;SDS011;23379;51.554;6.736;2024-02-28T12:46:04;39.92;;;19.30;;
37535;SDS011;23379;51.554;6.736;2024-02-28T12:48:29;40.13;;;19.40;;
37535;SDS011;23379;51.554;6.736;2024-02-28T12:50:56;41.63;;;20.15;;
37535;SDS011;23379;51.554;6.736;2024-02-28T12:53:21;43.08;;;19.40;;
37535;SDS011;23379;51.554;6.736;2024-02-28T12:55:47;40.03;;;19.77;;
37535;SDS011;23379;51.554;6.736;2024-02-28T12:58:12;35.10;;;19.45;;
37535;SDS011;23379;51.554;6.736;2024-02-28T13:00:37;39.17;;;18.95;;
37535;SDS011;23379;51.554;6.736;2024-02-28T13:03:03;38.58;;;18.92;;
37535;SDS011;23379;51.554;6.736;2024-02-28T13:05:29;41.17;;;19.98;;
37535;SDS011;23379;51.554;6.736;2024-02-28T13:07:54;35.97;;;19.20;;
37535;SDS011;23379;51.554;6.736;2024-02-28T13:10:20;38.47;;;19.92;;
37535;SDS011;23379;51.554;6.736;2024-02-28T13:12:46;38.42;;;19.67;;
37535;SDS011;23379;51.554;6.736;2024-02-28T13:15:12;42.00;;;20.15;;
37535;SDS011;23379;51.554;6.736;2024-02-28T13:17:37;41.67;;;19.85;;
37535;SDS011;23379;51.554;6.736;2024-02-28T13:20:03;40.10;;;19.70;;
37535;SDS011;23379;51.554;6.736;2024-02-28T13:22:29;37.17;;;19.00;;
37535;SDS011;23379;51.554;6.736;2024-02-28T13:24:54;38.28;;;20.20;;
37535;SDS011;23379;51.554;6.736;2024-02-28T13:27:20;42.35;;;20.83;;
37535;SDS011;23379;51.554;6.736;2024-02-28T13:29:48;43.42;;;22.00;;
37535;SDS011;23379;51.554;6.736;2024-02-28T13:32:13;36.17;;;19.70;;
37535;SDS011;23379;51.554;6.736;2024-02-28T13:34:39;36.00;;;19.48;;
37535;SDS011;23379;51.554;6.736;2024-02-28T13:37:05;38.05;;;18.90;;
37535;SDS011;23379;51.554;6.736;2024-02-28T13:39:30;35.25;;;18.38;;
37535;SDS011;23379;51.554;6.736;2024-02-28T13:41:56;34.75;;;18.50;;
37535;SDS011;23379;51.554;6.736;2024-02-28T13:44:22;37.65;;;19.40;;
37535;SDS011;23379;51.554;6.736;2024-02-28T13:46:47;35.95;;;18.50;;
37535;SDS011;23379;51.554;6.736;2024-02-28T13:49:14;37.78;;;19.30;;
37535;SDS011;23379;51.554;6.736;2024-02-28T13:51:41;36.15;;;17.85;;
37535;SDS011;23379;51.554;6.736;2024-02-28T13:54:07;34.95;;;18.40;;
37535;SDS011;23379;51.554;6.736;2024-02-28T13:56:32;41.97;;;18.40;;
37535;SDS011;23379;51.554;6.736;2024-02-28T13:58:57;37.97;;;18.92;;
37535;SDS011;23379;51.554;6.736;2024-02-28T14:01:22;36.05;;;18.10;;
37535;SDS011;23379;51.554;6.736;2024-02-28T14:03:48;33.25;;;17.70;;
37535;SDS011;23379;51.554;6.736;2024-02-28T14:06:14;37.25;;;18.15;;
37535;SDS011;23379;51.554;6.736;2024-02-28T14:08:39;36.60;;;18.17;;
37535;SDS011;23379;51.554;6.736;2024-02-28T14:11:05;37.78;;;19.40;;
37535;SDS011;23379;51.554;6.736;2024-02-28T14:13:30;33.70;;;18.52;;